Terminal Aerodrome Forecast
Issued by NWS

Home | Current Version | Previous Version | Text Only | Print | Product List | Glossary On
Versions: 1 2 3 4 5 6 7 8 9 10 11 12 13 14 15
032
FTUS43 KMQT 290534
TAFIWD
TAF
KIWD 290534Z 2906/3006 09004KT P6SM SCT200
     FM291400 10004KT P6SM BKN120=

USA.gov is the U.S. government's official web portal to all federal, state and local government web resources and services.